Time;durP1;ratioP1;P1;durP2;ratioP2;P2;SDS_P1;SDS_P2;PMS_P1;PMS_P2;Temp;Humidity;BMP_temperature;BMP_pressure;BME280_temperature;BME280_humidity;BME280_pressure;Samples;Min_cycle;Max_cycle;Signal;HPM_P1;HPM_P2
2021/08/10 00:02:18;;;;;;;1.43;1.33;;;;;;;16.15;76.17;100643.72;5041644;28;20674;-77
2021/08/10 00:04:45;;;;;;;2.67;1.63;;;;;;;16.17;76.02;100635.75;5042238;28;20248;-77
2021/08/10 00:07:11;;;;;;;1.77;1.63;;;;;;;16.14;76.21;100626.22;5042103;28;20663;-77
2021/08/10 00:09:38;;;;;;;1.47;1.33;;;;;;;16.18;75.75;100648.03;5042204;28;20209;-77
2021/08/10 00:12:05;;;;;;;1.50;1.40;;;;;;;16.15;76.70;100612.09;5041142;28;20582;-77
2021/08/10 00:14:31;;;;;;;2.33;1.50;;;;;;;16.13;77.07;100592.88;5041599;28;20232;-77
2021/08/10 00:16:59;;;;;;;1.57;1.47;;;;;;;16.15;77.02;100601.56;5042403;28;20208;-77
2021/08/10 00:19:25;;;;;;;3.63;1.50;;;;;;;16.13;76.55;100605.19;5041726;28;20270;-77
2021/08/10 00:21:52;;;;;;;1.73;1.47;;;;;;;16.08;76.84;100608.88;5041371;28;20209;-77
2021/08/10 00:24:18;;;;;;;1.97;1.87;;;;;;;16.04;76.52;100606.44;5041977;28;20221;-77
2021/08/10 00:26:45;;;;;;;2.17;1.50;;;;;;;16.02;76.05;100624.91;5041156;28;20259;-77
2021/08/10 00:29:12;;;;;;;2.00;1.50;;;;;;;16.01;76.30;100624.97;5041197;28;20208;-77
2021/08/10 00:31:38;;;;;;;1.63;1.30;;;;;;;15.94;76.06;100610.34;5041327;28;20214;-77
2021/08/10 00:34:06;;;;;;;2.17;1.57;;;;;;;15.92;75.99;100615.66;5040954;28;20233;-77
2021/08/10 00:36:33;;;;;;;1.40;1.30;;;;;;;15.90;76.10;100612.22;5041935;28;20216;-77
2021/08/10 00:38:59;;;;;;;1.63;1.50;;;;;;;15.84;76.64;100589.63;5041549;28;20580;-78
2021/08/10 00:41:26;;;;;;;2.70;1.80;;;;;;;15.86;76.53;100593.06;5041786;28;20222;-77
2021/08/10 00:43:52;;;;;;;2.33;1.50;;;;;;;15.78;77.64;100566.16;5040190;28;20228;-77
2021/08/10 00:46:19;;;;;;;2.23;1.67;;;;;;;15.75;77.06;100587.31;5042498;28;20205;-77
2021/08/10 00:48:45;;;;;;;1.90;1.70;;;;;;;15.78;76.90;100589.84;5042066;28;20206;-77
2021/08/10 00:51:14;;;;;;;1.47;1.20;;;;;;;15.71;77.29;100585.69;5041634;28;20583;-77
2021/08/10 00:53:41;;;;;;;2.00;1.80;;;;;;;15.71;77.07;100587.47;5039993;28;20240;-77
2021/08/10 00:56:08;;;;;;;2.63;1.57;;;;;;;15.69;77.49;100579.63;5041933;28;20236;-77
2021/08/10 00:58:36;;;;;;;1.70;1.60;;;;;;;15.69;77.75;100569.97;5041283;28;20202;-77
2021/08/10 01:01:03;;;;;;;2.37;1.50;;;;;;;15.67;77.95;100549.88;5044696;28;20202;-77
2021/08/10 01:03:30;;;;;;;2.70;1.43;;;;;;;15.60;78.47;100536.13;5043963;28;20604;-77
2021/08/10 01:05:57;;;;;;;2.20;1.50;;;;;;;15.61;78.04;100526.44;5045541;28;20209;-77
2021/08/10 01:08:38;;;;;;;2.13;1.70;;;;;;;15.62;77.08;100568.50;5046056;28;20205;-76
2021/08/10 01:11:15;;;;;;;2.97;1.77;;;;;;;15.62;77.73;100554.50;5045488;28;20209;-77
2021/08/10 01:13:48;;;;;;;2.27;1.43;;;;;;;15.58;77.50;100553.75;5043244;28;20314;-77
2021/08/10 01:16:21;;;;;;;1.53;1.30;;;;;;;15.55;77.93;100540.69;5045192;28;20265;-77
2021/08/10 01:18:55;;;;;;;2.20;1.50;;;;;;;15.49;77.85;100548.81;5044941;28;20247;-77
2021/08/10 01:21:26;;;;;;;1.90;1.57;;;;;;;15.42;76.28;100581.50;5045854;28;20212;-77
2021/08/10 01:24:02;;;;;;;1.13;1.03;;;;;;;15.46;77.52;100576.09;5044012;28;20692;-77
2021/08/10 01:26:44;;;;;;;2.37;1.67;;;;;;;15.47;77.84;100548.88;5045355;28;20251;-77
2021/08/10 01:29:19;;;;;;;1.23;1.13;;;;;;;15.38;78.74;100537.81;5044244;28;20236;-77
2021/08/10 01:31:47;;;;;;;1.60;1.47;;;;;;;15.36;78.16;100551.06;5044561;28;20220;-77
2021/08/10 01:34:24;;;;;;;1.77;1.50;;;;;;;15.35;78.46;100540.59;5044463;28;20229;-77
2021/08/10 01:36:52;;;;;;;1.73;1.57;;;;;;;15.33;79.21;100516.13;5044555;28;20235;-77
2021/08/10 01:39:20;;;;;;;1.50;1.40;;;;;;;15.32;79.03;100524.91;5044272;28;20679;-77
2021/08/10 01:41:48;;;;;;;1.93;1.47;;;;;;;15.36;78.81;100521.25;5044735;28;20295;-77
2021/08/10 01:44:16;;;;;;;1.77;1.50;;;;;;;15.36;78.65;100524.75;5043882;28;20590;-77
2021/08/10 01:46:45;;;;;;;1.57;1.40;;;;;;;15.32;79.38;100514.38;5043721;28;20263;-77
2021/08/10 01:49:13;;;;;;;2.60;1.80;;;;;;;15.31;78.63;100526.69;5044874;28;20209;-77
2021/08/10 01:51:41;;;;;;;1.93;1.40;;;;;;;15.31;78.49;100525.84;5044724;28;20208;-77
2021/08/10 01:54:09;;;;;;;2.97;1.60;;;;;;;15.27;79.05;100515.41;5043058;28;20320;-77
2021/08/10 01:56:37;;;;;;;1.57;1.43;;;;;;;15.23;78.76;100512.97;5044300;28;20213;-77
2021/08/10 01:59:06;;;;;;;2.13;1.50;;;;;;;15.20;79.20;100513.06;5043940;28;20198;-77
2021/08/10 02:01:32;;;;;;;1.47;1.30;;;;;;;15.20;79.59;100502.56;5044577;28;20684;-77
2021/08/10 02:03:59;;;;;;;1.90;1.60;;;;;;;15.23;79.77;100498.03;5043093;28;20217;-76
2021/08/10 02:06:29;;;;;;;1.53;1.00;;;;;;;15.24;79.99;100489.25;5044035;28;20750;-77
2021/08/10 02:08:57;;;;;;;1.97;1.30;;;;;;;15.27;79.62;100494.38;5044349;28;20208;-77
2021/08/10 02:11:26;;;;;;;1.37;1.27;;;;;;;15.26;79.94;100489.16;5044112;28;20574;-77
2021/08/10 02:13:53;;;;;;;2.63;1.50;;;;;;;15.26;79.68;100471.63;5042203;28;20259;-77
2021/08/10 02:16:21;;;;;;;1.20;1.13;;;;;;;15.24;80.11;100467.34;5043942;28;21038;-77
2021/08/10 02:18:48;;;;;;;1.60;1.20;;;;;;;15.25;80.27;100474.31;5044526;28;20224;-77
2021/08/10 02:21:24;;;;;;;1.87;1.30;;;;;;;15.21;80.33;100467.47;5043797;28;20266;-77
2021/08/10 02:23:56;;;;;;;2.07;1.40;;;;;;;15.21;80.19;100468.31;5043483;28;20221;-77
2021/08/10 02:26:23;;;;;;;1.20;1.10;;;;;;;15.26;79.83;100484.78;5044026;28;20209;-77
2021/08/10 02:28:51;;;;;;;2.03;1.30;;;;;;;15.27;79.80;100473.34;5043674;28;20214;-77
2021/08/10 02:31:19;;;;;;;1.73;1.50;;;;;;;15.27;79.79;100480.38;5043646;28;20216;-77
2021/08/10 02:33:47;;;;;;;1.43;1.33;;;;;;;15.27;79.29;100491.75;5042496;28;20233;-77
2021/08/10 02:36:15;;;;;;;1.60;1.50;;;;;;;15.31;79.96;100479.34;5043495;28;20209;-77
2021/08/10 02:38:43;;;;;;;1.23;1.13;;;;;;;15.35;79.92;100467.78;5043676;28;20205;-77
2021/08/10 02:41:12;;;;;;;1.87;1.50;;;;;;;15.36;80.09;100461.63;5043410;28;20214;-77
2021/08/10 02:43:40;;;;;;;2.10;1.37;;;;;;;15.37;80.47;100447.56;5042128;28;20758;-76
2021/08/10 02:46:06;;;;;;;1.23;1.13;;;;;;;15.40;80.39;100460.59;5043547;28;20683;-77
2021/08/10 02:48:33;;;;;;;1.33;1.23;;;;;;;15.39;80.46;100452.75;5043265;28;20205;-77
2021/08/10 02:51:00;;;;;;;2.07;1.27;;;;;;;15.41;81.02;100448.28;5043357;28;20205;-77
2021/08/10 02:53:26;;;;;;;1.50;1.33;;;;;;;15.41;81.26;100437.78;5042696;28;20233;-76
2021/08/10 02:55:58;;;;;;;1.40;1.20;;;;;;;15.48;80.46;100449.78;5043220;28;20288;-77
2021/08/10 02:58:31;;;;;;;1.33;1.23;;;;;;;15.48;80.49;100455.88;5042640;28;20206;-76
2021/08/10 03:01:02;;;;;;;1.30;1.00;;;;;;;15.46;80.61;100451.59;5043359;28;20263;-77
2021/08/10 03:03:32;;;;;;;1.47;1.37;;;;;;;15.48;80.49;100453.25;5042253;28;20279;-77
2021/08/10 03:06:01;;;;;;;2.47;1.40;;;;;;;15.47;80.73;100458.56;5042798;28;20204;-77
2021/08/10 03:08:31;;;;;;;1.60;1.40;;;;;;;15.48;81.18;100449.78;5042953;28;20206;-77
2021/08/10 03:10:58;;;;;;;1.60;1.43;;;;;;;15.49;80.99;100436.53;5042633;28;20720;-77
2021/08/10 03:13:28;;;;;;;2.17;1.60;;;;;;;15.52;80.56;100459.25;5041731;28;20236;-77
2021/08/10 03:15:58;;;;;;;1.27;1.17;;;;;;;15.53;80.99;100445.19;5043061;28;20643;-77
2021/08/10 03:18:30;;;;;;;2.37;1.40;;;;;;;15.53;80.81;100439.91;5042398;28;20672;-77
2021/08/10 03:21:00;;;;;;;1.40;1.30;;;;;;;15.52;81.43;100432.97;5042382;28;20719;-77
2021/08/10 03:23:29;;;;;;;1.90;1.40;;;;;;;15.55;81.34;100445.13;5041015;28;20348;-77
2021/08/10 03:25:56;;;;;;;1.67;1.33;;;;;;;15.57;79.63;100494.13;5042658;28;20209;-77
2021/08/10 03:28:26;;;;;;;1.63;1.20;;;;;;;15.57;80.36;100469.59;5041911;28;20208;-77
2021/08/10 03:30:55;;;;;;;1.43;1.20;;;;;;;15.56;80.24;100476.63;5043111;28;20609;-77
2021/08/10 03:33:24;;;;;;;1.87;1.47;;;;;;;15.59;80.17;100473.88;5041870;28;20225;-77
2021/08/10 03:35:52;;;;;;;2.97;1.70;;;;;;;15.59;80.37;100473.03;5042526;28;20643;-77
2021/08/10 03:38:20;;;;;;;2.47;1.10;;;;;;;15.57;80.69;100454.66;5042708;28;20295;-77
2021/08/10 03:40:47;;;;;;;2.37;1.30;;;;;;;15.58;80.55;100466.03;5042746;28;20743;-77
2021/08/10 03:43:14;;;;;;;1.57;1.33;;;;;;;15.59;80.82;100462.50;5040399;28;20358;-77
2021/08/10 03:45:42;;;;;;;1.87;1.50;;;;;;;15.57;80.99;100451.19;5042580;28;20205;-77
2021/08/10 03:48:11;;;;;;;1.97;1.77;;;;;;;15.56;81.07;100447.69;5042658;28;20217;-77
2021/08/10 03:50:39;;;;;;;1.17;1.07;;;;;;;15.56;81.74;100431.91;5042622;28;20251;-77
2021/08/10 03:53:06;;;;;;;1.27;1.17;;;;;;;15.54;81.21;100433.75;5041647;28;20225;-78
2021/08/10 03:55:35;;;;;;;1.20;1.10;;;;;;;15.58;80.76;100440.59;5041678;28;20229;-77
2021/08/10 03:58:05;;;;;;;2.17;1.50;;;;;;;15.54;81.92;100420.59;5041662;28;20213;-77
2021/08/10 04:00:35;;;;;;;1.73;1.13;;;;;;;15.49;81.81;100417.28;5042240;28;20212;-77
2021/08/10 04:03:02;;;;;;;1.50;1.23;;;;;;;15.45;82.14;100403.38;5041108;28;21081;-77
2021/08/10 04:05:30;;;;;;;1.60;1.20;;;;;;;15.46;82.94;100380.56;5042480;28;20210;-77
2021/08/10 04:07:57;;;;;;;3.17;1.30;;;;;;;15.40;83.21;100367.66;5042438;28;20263;-77
2021/08/10 04:10:23;;;;;;;1.63;1.27;;;;;;;15.42;83.57;100358.81;5041785;28;20209;-77
2021/08/10 04:12:50;;;;;;;1.60;1.20;;;;;;;15.38;83.77;100351.97;5041437;28;20229;-77
2021/08/10 04:15:17;;;;;;;1.57;1.27;;;;;;;15.42;83.48;100358.81;5042050;28;20224;-77
2021/08/10 04:17:44;;;;;;;2.33;1.40;;;;;;;15.47;83.10;100366.50;5041945;28;20267;-77
2021/08/10 04:20:11;;;;;;;1.80;1.20;;;;;;;15.47;82.64;100395.44;5041826;28;21184;-77
2021/08/10 04:22:41;;;;;;;2.63;1.60;;;;;;;15.46;82.60;100406.84;5040361;28;20240;-77
2021/08/10 04:25:08;;;;;;;2.53;1.30;;;;;;;15.46;82.61;100404.22;5041983;28;20321;-77
2021/08/10 04:27:35;;;;;;;2.20;1.40;;;;;;;15.49;81.49;100443.59;5042188;28;20205;-77
2021/08/10 04:30:01;;;;;;;2.07;1.40;;;;;;;15.49;81.07;100449.69;5042024;28;20212;-78
2021/08/10 04:32:28;;;;;;;2.83;1.40;;;;;;;15.43;81.38;100449.09;5041597;28;20229;-77
2021/08/10 04:34:55;;;;;;;1.40;1.30;;;;;;;15.51;81.93;100427.75;5043234;28;20221;-77
2021/08/10 04:37:21;;;;;;;1.97;1.13;;;;;;;15.49;81.80;100436.53;5046518;28;20213;-77
2021/08/10 04:39:49;;;;;;;1.20;1.10;;;;;;;15.56;79.18;100502.94;5044735;28;20218;-77
2021/08/10 04:42:15;;;;;;;1.80;1.07;;;;;;;15.61;78.37;100540.44;5045137;28;20236;-77
2021/08/10 04:44:42;;;;;;;1.83;1.23;;;;;;;15.63;80.37;100488.63;5045577;28;20206;-77
2021/08/10 04:47:08;;;;;;;1.30;1.20;;;;;;;15.67;80.72;100476.22;5045388;28;20237;-77
2021/08/10 04:49:35;;;;;;;2.30;1.47;;;;;;;15.72;80.57;100476.91;5045465;28;20290;-77
2021/08/10 04:52:02;;;;;;;2.50;1.40;;;;;;;15.71;80.82;100472.53;5044936;28;20925;-77
2021/08/10 04:54:29;;;;;;;1.83;1.37;;;;;;;15.80;79.38;100516.09;5045071;28;20203;-77
2021/08/10 04:56:57;;;;;;;2.07;1.70;;;;;;;15.84;78.77;100544.88;5045457;28;20267;-77
2021/08/10 04:59:23;;;;;;;3.00;1.43;;;;;;;15.88;79.02;100538.56;5045521;28;20213;-77
2021/08/10 05:01:49;;;;;;;1.37;1.27;;;;;;;16.00;77.87;100571.44;5045175;28;20267;-77
2021/08/10 05:04:16;;;;;;;2.63;1.43;;;;;;;15.98;77.62;100546.13;5042364;28;20221;-77
2021/08/10 05:06:43;;;;;;;1.97;1.47;;;;;;;15.98;76.97;100611.94;5043758;28;20195;-77
2021/08/10 05:09:09;;;;;;;1.77;1.50;;;;;;;16.05;79.78;100508.94;5044222;28;20568;-77
2021/08/10 05:11:36;;;;;;;1.40;1.30;;;;;;;16.07;78.40;100541.34;5044263;28;20668;-77
2021/08/10 05:14:04;;;;;;;2.97;1.13;;;;;;;16.10;79.01;100510.53;5042180;28;20279;-77
2021/08/10 05:16:30;;;;;;;1.70;1.30;;;;;;;16.16;77.97;100566.44;5044233;28;20233;-77
2021/08/10 05:18:57;;;;;;;2.63;1.17;;;;;;;16.13;78.92;100531.47;5044444;28;20257;-77
2021/08/10 05:21:23;;;;;;;2.03;1.17;;;;;;;16.17;78.64;100546.22;5044681;28;20633;-77
2021/08/10 05:23:49;;;;;;;3.13;1.27;;;;;;;16.21;77.56;100574.13;5042582;28;20628;-77
2021/08/10 05:26:16;;;;;;;2.33;1.70;;;;;;;16.24;77.14;100576.66;5044436;28;20214;-77
2021/08/10 05:28:43;;;;;;;3.27;1.40;;;;;;;16.30;76.78;100596.63;5043652;28;20703;-77
2021/08/10 05:31:11;;;;;;;3.43;1.40;;;;;;;16.19;78.55;100515.41;5044008;28;20552;-77
2021/08/10 05:33:37;;;;;;;2.67;1.50;;;;;;;16.25;79.33;100509.88;5042809;28;20638;-77
2021/08/10 05:36:04;;;;;;;1.90;1.20;;;;;;;16.24;79.65;100485.31;5043720;28;20221;-77
2021/08/10 05:38:31;;;;;;;1.63;1.50;;;;;;;16.18;78.73;100545.31;5044558;28;20205;-77
2021/08/10 05:40:58;;;;;;;1.43;1.33;;;;;;;16.18;78.07;100567.22;5043481;28;20611;-77
2021/08/10 05:43:25;;;;;;;1.50;1.40;;;;;;;16.19;78.37;100557.53;5043515;28;20764;-77
2021/08/10 05:45:52;;;;;;;2.33;1.30;;;;;;;16.18;78.72;100533.00;5042721;28;20221;-77
2021/08/10 05:48:21;;;;;;;1.53;1.20;;;;;;;16.22;79.23;100526.69;5043648;28;20255;-77
2021/08/10 05:50:48;;;;;;;1.20;1.10;;;;;;;16.32;78.55;100544.75;5044202;28;20209;-77
2021/08/10 05:53:15;;;;;;;2.47;1.30;;;;;;;16.39;79.00;100530.38;5043023;28;20241;-77
2021/08/10 05:55:41;;;;;;;2.20;1.37;;;;;;;16.38;79.72;100503.19;5046805;28;20242;-77
2021/08/10 05:58:08;;;;;;;1.77;1.67;;;;;;;16.41;79.63;100505.72;5047208;28;20202;-78
2021/08/10 06:00:34;;;;;;;1.53;1.37;;;;;;;16.48;78.84;100535.28;5044113;28;20206;-77
2021/08/10 06:03:01;;;;;;;2.63;1.50;;;;;;;16.52;78.68;100549.19;5042935;28;20741;-77
2021/08/10 06:05:29;;;;;;;3.70;2.13;;;;;;;16.58;77.80;100562.94;5043594;28;20550;-77
2021/08/10 06:07:55;;;;;;;4.43;1.23;;;;;;;16.57;77.14;100599.91;5043707;28;20255;-77
2021/08/10 06:10:21;;;;;;;1.50;1.40;;;;;;;16.62;77.02;100600.59;5042854;28;20244;-77
2021/08/10 06:12:48;;;;;;;1.93;1.43;;;;;;;16.63;77.29;100597.00;5043131;28;20234;-77
2021/08/10 06:15:14;;;;;;;1.53;1.37;;;;;;;16.62;76.80;100621.66;5043217;28;20243;-77
2021/08/10 06:17:41;;;;;;;1.83;1.43;;;;;;;16.69;77.35;100609.97;5043416;28;21115;-77
2021/08/10 06:20:09;;;;;;;3.70;1.30;;;;;;;16.55;76.77;100636.88;5044236;28;20271;-78
2021/08/10 06:22:37;;;;;;;1.23;1.13;;;;;;;16.59;77.42;100609.47;5044515;28;20300;-76
2021/08/10 06:25:03;;;;;;;1.73;1.50;;;;;;;16.67;77.55;100609.16;5043442;28;20203;-76
2021/08/10 06:27:30;;;;;;;3.33;1.83;;;;;;;16.62;76.38;100648.03;5043403;28;20275;-76
2021/08/10 06:29:56;;;;;;;1.57;1.40;;;;;;;16.62;76.45;100650.66;5042849;28;20202;-76
2021/08/10 06:32:23;;;;;;;2.63;1.90;;;;;;;16.67;76.18;100653.97;5042882;28;20567;-76
2021/08/10 06:34:49;;;;;;;1.77;1.17;;;;;;;16.69;77.09;100623.16;5043680;28;20235;-76
2021/08/10 06:37:16;;;;;;;4.53;1.60;;;;;;;16.71;76.37;100645.03;5044476;28;20223;-75
2021/08/10 06:39:43;;;;;;;3.47;1.77;;;;;;;16.66;76.30;100665.44;5043044;28;20279;-76
2021/08/10 06:42:10;;;;;;;1.80;1.33;;;;;;;16.71;76.61;100657.31;5042696;28;20749;-76
2021/08/10 06:44:36;;;;;;;4.57;1.60;;;;;;;16.72;76.33;100662.53;5041534;28;20218;-76
2021/08/10 06:47:03;;;;;;;3.20;1.60;;;;;;;16.73;76.52;100668.66;5041292;28;20202;-76
2021/08/10 06:49:30;;;;;;;2.17;1.43;;;;;;;16.70;76.59;100658.25;5042285;28;20237;-76
2021/08/10 06:51:56;;;;;;;1.93;1.27;;;;;;;16.65;76.53;100656.66;5041528;28;20233;-75
2021/08/10 06:54:23;;;;;;;1.50;1.40;;;;;;;16.56;76.71;100661.44;5043198;28;20641;-75
2021/08/10 06:56:51;;;;;;;2.27;2.00;;;;;;;16.55;76.65;100662.34;5042933;28;20225;-75
2021/08/10 06:59:17;;;;;;;2.20;1.40;;;;;;;16.57;77.33;100642.06;5041780;28;20266;-75
2021/08/10 07:01:44;;;;;;;1.60;1.20;;;;;;;16.54;77.68;100614.06;5042088;28;20211;-76
2021/08/10 07:04:10;;;;;;;2.20;1.50;;;;;;;16.58;78.75;100570.84;5040701;28;20222;-76
2021/08/10 07:06:37;;;;;;;2.10;1.90;;;;;;;16.30;79.46;100543.97;5044704;28;20206;-75
2021/08/10 07:09:06;;;;;;;2.87;1.40;;;;;;;16.40;80.29;100492.59;5043963;28;20714;-75
2021/08/10 07:11:34;;;;;;;3.30;1.60;;;;;;;16.34;80.56;100474.41;5044498;28;20747;-75
2021/08/10 07:14:01;;;;;;;3.03;1.97;;;;;;;16.11;82.03;100427.97;5042613;28;20250;-75
2021/08/10 07:16:29;;;;;;;2.30;1.80;;;;;;;16.20;83.07;100383.66;5045060;28;20644;-75
2021/08/10 07:18:56;;;;;;;1.77;1.67;;;;;;;16.36;83.87;100351.38;5043845;28;20253;-76
2021/08/10 07:21:23;;;;;;;3.07;2.07;;;;;;;16.53;83.23;100369.94;5044663;28;20450;-75
2021/08/10 07:23:49;;;;;;;2.13;1.60;;;;;;;16.65;84.02;100340.38;5042634;28;20309;-75
2021/08/10 07:26:16;;;;;;;2.50;1.93;;;;;;;16.82;83.80;100349.31;5043068;28;20263;-75
2021/08/10 07:28:42;;;;;;;3.10;1.80;;;;;;;16.79;83.63;100366.13;5043557;28;20212;-75
2021/08/10 07:31:10;;;;;;;2.17;1.63;;;;;;;16.83;82.65;100375.63;5042834;28;20203;-75
2021/08/10 07:33:36;;;;;;;2.57;2.07;;;;;;;16.82;82.14;100389.72;5041328;28;20226;-75
2021/08/10 07:36:03;;;;;;;3.03;1.80;;;;;;;16.89;82.97;100356.03;5042794;28;20291;-75
2021/08/10 07:38:29;;;;;;;3.23;1.90;;;;;;;16.82;82.76;100378.31;5042656;28;20741;-75
2021/08/10 07:40:56;;;;;;;2.70;1.80;;;;;;;16.83;83.01;100367.72;5042314;28;20219;-75
2021/08/10 07:43:23;;;;;;;3.83;1.80;;;;;;;16.93;82.89;100383.97;5041654;28;20619;-75
2021/08/10 07:45:49;;;;;;;2.83;1.67;;;;;;;17.01;82.82;100380.97;5042247;28;20204;-75
2021/08/10 07:48:17;;;;;;;2.87;2.07;;;;;;;17.05;82.63;100386.03;5042537;28;20210;-75
2021/08/10 07:50:44;;;;;;;2.43;1.97;;;;;;;17.22;82.56;100373.81;5041630;28;20771;-75
2021/08/10 07:53:12;;;;;;;1.93;1.70;;;;;;;17.32;81.83;100396.19;5041461;28;20226;-75
2021/08/10 07:55:38;;;;;;;2.43;1.77;;;;;;;17.46;81.44;100436.00;5043369;28;20233;-75
2021/08/10 07:58:05;;;;;;;3.07;1.90;;;;;;;17.52;81.49;100440.13;5042524;28;20705;-75
2021/08/10 08:00:31;;;;;;;1.93;1.70;;;;;;;17.53;80.43;100464.72;5041944;28;20264;-75
2021/08/10 08:02:57;;;;;;;1.97;1.77;;;;;;;17.52;80.75;100465.66;5042058;28;20228;-76
2021/08/10 08:05:25;;;;;;;2.90;2.00;;;;;;;17.53;78.95;100507.81;5041938;28;20210;-75
2021/08/10 08:07:52;;;;;;;2.37;2.17;;;;;;;17.58;77.90;100536.63;5040758;28;20210;-75
2021/08/10 08:10:18;;;;;;;4.33;2.20;;;;;;;17.62;78.04;100539.06;5042143;28;20202;-76
2021/08/10 08:12:45;;;;;;;2.13;1.67;;;;;;;17.76;78.77;100512.00;5040864;28;20225;-76
2021/08/10 08:15:12;;;;;;;2.20;1.77;;;;;;;17.85;77.09;100563.56;5042108;28;20204;-75
2021/08/10 08:17:38;;;;;;;2.20;1.73;;;;;;;17.93;78.56;100519.13;5041603;28;20616;-75
2021/08/10 08:20:06;;;;;;;3.03;2.20;;;;;;;18.01;77.48;100561.88;5041702;28;20206;-76
2021/08/10 08:22:34;;;;;;;2.33;2.00;;;;;;;17.90;73.82;100690.09;5040304;28;20577;-75
2021/08/10 08:25:00;;;;;;;1.67;1.57;;;;;;;17.96;76.00;100632.59;5042425;28;20673;-75
2021/08/10 08:27:27;;;;;;;2.13;1.77;;;;;;;17.82;74.77;100682.50;5041794;28;20668;-75
2021/08/10 08:29:53;;;;;;;2.30;1.97;;;;;;;17.85;74.21;100691.16;5041443;28;20207;-75
2021/08/10 08:32:20;;;;;;;2.50;1.70;;;;;;;17.85;74.17;100709.66;5041415;28;20641;-76
2021/08/10 08:34:46;;;;;;;3.27;2.10;;;;;;;17.99;74.83;100672.03;5041202;28;20229;-76
2021/08/10 08:37:13;;;;;;;3.33;1.90;;;;;;;18.04;74.37;100692.97;5041376;28;20282;-75
2021/08/10 08:39:41;;;;;;;2.13;1.93;;;;;;;17.89;72.59;100770.25;5041190;28;20210;-75
2021/08/10 08:42:10;;;;;;;2.17;1.97;;;;;;;17.92;73.16;100743.69;5040371;28;20214;-75
2021/08/10 08:44:38;;;;;;;2.30;2.17;;;;;;;17.84;73.61;100730.88;5041272;28;20212;-75
2021/08/10 08:47:05;;;;;;;2.43;2.23;;;;;;;17.84;73.12;100731.72;5041709;28;20219;-75
2021/08/10 08:49:33;;;;;;;3.30;2.37;;;;;;;17.77;73.32;100743.44;5041186;28;20212;-75
2021/08/10 08:52:01;;;;;;;2.40;2.20;;;;;;;17.89;72.30;100778.19;5041494;28;20255;-75
2021/08/10 08:54:27;;;;;;;2.97;2.73;;;;;;;17.99;73.27;100753.06;5041786;28;21093;-75
2021/08/10 08:56:55;;;;;;;2.90;2.53;;;;;;;18.03;70.68;100810.13;5041855;28;20250;-76
2021/08/10 08:59:23;;;;;;;2.83;2.30;;;;;;;18.09;70.25;100849.47;5041439;28;20214;-75
2021/08/10 09:01:49;;;;;;;3.53;2.57;;;;;;;18.17;71.43;100791.03;5040708;28;20721;-76
2021/08/10 09:04:16;;;;;;;3.83;2.63;;;;;;;18.24;69.58;100869.09;5040336;28;20280;-76
2021/08/10 09:06:42;;;;;;;2.57;2.20;;;;;;;18.32;69.74;100831.78;5041199;28;20211;-75
2021/08/10 09:09:19;;;;;;;2.70;2.50;;;;;;;18.44;71.11;100804.78;5041218;28;20204;-75
2021/08/10 09:11:49;;;;;;;4.57;2.40;;;;;;;18.45;69.27;100868.16;5040837;28;20308;-75
2021/08/10 09:14:17;;;;;;;2.90;2.40;;;;;;;18.52;69.63;100870.53;5039740;28;20223;-75
2021/08/10 09:17:02;;;;;;;2.80;2.47;;;;;;;18.61;69.53;100849.81;5041405;28;20233;-75
2021/08/10 09:19:40;;;;;;;3.17;2.40;;;;;;;18.58;67.91;100925.75;5042599;28;20218;-76
2021/08/10 09:22:16;;;;;;;3.43;2.47;;;;;;;18.70;68.29;100882.03;5043005;28;20230;-75
2021/08/10 09:24:44;;;;;;;3.13;2.87;;;;;;;18.73;68.43;100879.25;5044314;28;20312;-76
2021/08/10 09:27:37;;;;;;;3.07;2.87;;;;;;;18.81;68.85;100867.44;5043659;28;21093;-76
2021/08/10 09:30:08;;;;;;;2.40;2.20;;;;;;;18.89;68.38;100897.94;5030060;28;20212;-76
2021/08/10 09:32:35;;;;;;;2.87;2.67;;;;;;;19.03;69.09;100859.34;5044072;28;20232;-76
2021/08/10 09:35:10;;;;;;;2.93;2.73;;;;;;;19.03;66.72;100967.81;5044223;28;20237;-75
2021/08/10 09:37:37;;;;;;;3.37;2.30;;;;;;;19.18;69.33;100878.06;5043776;28;20232;-76
2021/08/10 09:40:28;;;;;;;3.20;2.90;;;;;;;19.22;64.84;101034.00;5045018;28;20295;-75
2021/08/10 09:42:56;;;;;;;3.10;2.90;;;;;;;19.25;61.11;101131.81;5043906;28;20304;-75
2021/08/10 09:45:23;;;;;;;3.87;3.37;;;;;;;19.45;62.07;101152.09;5045192;28;20212;-75
2021/08/10 09:47:50;;;;;;;3.83;3.23;;;;;;;19.70;62.10;101127.16;5044909;28;20213;-75
2021/08/10 09:50:18;;;;;;;3.73;3.27;;;;;;;19.90;59.17;101241.97;5044349;28;20220;-75
2021/08/10 09:52:46;;;;;;;4.13;3.73;;;;;;;19.84;58.58;101298.75;5043706;28;20236;-75
2021/08/10 09:55:15;;;;;;;4.60;4.03;;;;;;;19.73;58.10;101320.41;5043706;28;20210;-75
2021/08/10 09:57:44;;;;;;;4.77;4.27;;;;;;;19.63;56.41;101402.03;5044212;28;20305;-75
2021/08/10 10:00:11;;;;;;;4.30;3.90;;;;;;;19.56;57.07;101352.03;5043276;28;20244;-75
2021/08/10 10:02:39;;;;;;;4.47;4.07;;;;;;;19.59;57.64;101323.63;5041586;28;20764;-75
2021/08/10 10:05:06;;;;;;;4.30;3.90;;;;;;;19.70;58.07;101290.50;5043388;28;20223;-75
2021/08/10 10:07:33;;;;;;;3.47;3.17;;;;;;;19.67;56.13;101360.38;5044251;28;20213;-76
2021/08/10 10:10:00;;;;;;;4.97;3.73;;;;;;;19.87;58.21;101308.38;5043800;28;20257;-75
2021/08/10 10:12:27;;;;;;;4.03;3.63;;;;;;;20.07;57.75;101308.34;5041172;28;20293;-76
2021/08/10 10:15:00;;;;;;;3.87;3.47;;;;;;;19.94;57.09;101338.97;5041675;28;20247;-75
2021/08/10 10:17:30;;;;;;;3.93;3.47;;;;;;;19.91;57.48;101307.31;5043630;28;20227;-76
2021/08/10 10:19:58;;;;;;;3.97;3.40;;;;;;;19.92;56.21;101315.19;5043603;28;20208;-75
2021/08/10 10:22:28;;;;;;;3.50;3.20;;;;;;;19.90;55.68;101387.72;5039660;28;20239;-76
2021/08/10 10:24:57;;;;;;;3.93;3.30;;;;;;;19.94;56.57;101344.25;5043949;28;20274;-79
2021/08/10 10:27:24;;;;;;;4.30;3.20;;;;;;;20.01;56.54;101343.94;5043609;28;21181;-77
2021/08/10 10:29:54;;;;;;;3.73;3.43;;;;;;;20.10;57.12;101316.16;5042409;28;20242;-78
2021/08/10 10:32:21;;;;;;;4.33;3.60;;;;;;;20.28;55.29;101393.13;5041781;28;20240;-75
2021/08/10 10:34:48;;;;;;;3.73;3.30;;;;;;;20.39;56.87;101316.63;5041787;28;20212;-76
2021/08/10 10:37:21;;;;;;;3.63;3.33;;;;;;;20.22;53.96;101419.00;5048811;28;20231;-76
2021/08/10 10:39:51;;;;;;;3.50;3.20;;;;;;;20.30;54.68;101412.53;5044418;28;20208;-75
2021/08/10 10:42:18;;;;;;;3.80;3.50;;;;;;;20.45;56.08;101326.94;5042722;28;20212;-75
2021/08/10 10:44:47;;;;;;;3.43;3.10;;;;;;;20.52;56.88;101315.13;5042814;28;20211;-76
2021/08/10 10:47:41;;;;;;;4.20;3.70;;;;;;;20.62;56.58;101320.91;5043274;28;20632;-76
2021/08/10 10:50:13;;;;;;;4.33;3.63;;;;;;;20.59;53.08;101498.78;5041767;28;20683;-75
2021/08/10 10:53:00;;;;;;;3.70;3.40;;;;;;;20.80;54.05;101412.91;5041412;28;20232;-76
2021/08/10 10:55:33;;;;;;;3.20;3.00;;;;;;;20.79;52.88;101456.31;5042301;28;20212;-77
2021/08/10 10:58:00;;;;;;;3.93;3.53;;;;;;;20.93;54.21;101409.69;5043262;28;20720;-77
2021/08/10 11:00:27;;;;;;;3.33;3.10;;;;;;;20.98;53.12;101455.47;5044087;28;20220;-78
2021/08/10 11:03:13;;;;;;;3.77;3.23;;;;;;;21.13;52.64;101460.06;5043903;28;20243;-77
2021/08/10 11:05:40;;;;;;;3.80;3.50;;;;;;;21.19;51.96;101478.34;5044581;28;20204;-77
2021/08/10 11:08:38;;;;;;;4.83;3.20;;;;;;;21.25;52.83;101466.59;5043562;28;20216;-77
2021/08/10 11:11:04;;;;;;;3.60;3.30;;;;;;;21.52;53.28;101450.28;5043684;28;20224;-77
2021/08/10 11:13:38;;;;;;;3.73;3.43;;;;;;;21.72;52.45;101471.41;5043924;28;20236;-78
2021/08/10 11:16:10;;;;;;;4.10;3.27;;;;;;;21.96;52.03;101506.59;5044796;28;21585;-77
2021/08/10 11:18:36;;;;;;;3.13;2.93;;;;;;;22.04;50.67;101540.78;5044994;28;20212;-77
2021/08/10 11:21:23;;;;;;;3.40;3.10;;;;;;;21.79;50.06;101541.97;5044917;28;20846;-77
2021/08/10 11:23:52;;;;;;;3.63;3.33;;;;;;;21.41;50.79;101557.91;5043362;28;20232;-77
2021/08/10 11:26:42;;;;;;;2.93;2.73;;;;;;;21.72;53.01;101463.44;5043884;28;20235;-76
2021/08/10 11:29:11;;;;;;;3.70;3.40;;;;;;;21.82;49.37;101570.19;5044989;28;20236;-77
2021/08/10 11:31:52;;;;;;;3.90;3.60;;;;;;;21.91;51.29;101519.22;5043346;28;20212;-77